Terminal Aerodrome Forecast
Issued by NWS

Home | Current Version | Previous Version | Text Only | Print | Product List | Glossary On
Versions: 1 2 3 4 5 6 7 8 9 10 11 12 13
691
FTUS45 KRIW 261131
TAFRKS
TAF
KRKS 261131Z 2612/2712 20007KT P6SM SCT100
     FM261700 24006KT P6SM VCSH SCT110
     FM262100 27012G22KT P6SM VCTS SCT100CB
      TEMPO 2621/2701 VRB20G35KT
     FM270300 21006KT P6SM FEW120=

USA.gov is the U.S. government's official web portal to all federal, state and local government web resources and services.